createdAt,value
2023-03-20T00:00:24.964Z,2.56
2023-03-20T00:03:14.584Z,2.51
2023-03-20T00:05:44.661Z,2.49
2023-03-20T00:08:14.515Z,2.47
2023-03-20T00:10:47.155Z,2.46
2023-03-20T00:13:26.655Z,2.45
2023-03-20T00:15:58.540Z,2.45
2023-03-20T00:18:28.003Z,2.45
2023-03-20T00:20:57.944Z,2.47
2023-03-20T00:23:28.562Z,2.47
2023-03-20T00:25:58.765Z,2.48
2023-03-20T00:28:31.064Z,2.51
2023-03-20T00:31:00.696Z,2.55
2023-03-20T00:33:31.965Z,2.56
2023-03-20T00:36:01.995Z,2.53
2023-03-20T00:38:31.881Z,2.54
2023-03-20T00:41:03.062Z,2.58
2023-03-20T00:43:33.753Z,2.60
2023-03-20T00:46:08.328Z,2.60
2023-03-20T00:48:42.841Z,2.59
2023-03-20T00:51:11.974Z,2.54
2023-03-20T00:53:41.308Z,2.48
2023-03-20T00:56:35.966Z,2.40
2023-03-20T00:59:05.797Z,2.30
2023-03-20T01:01:36.688Z,2.26
2023-03-20T01:04:17.275Z,2.21
2023-03-20T01:06:47.234Z,2.14
2023-03-20T01:09:20.215Z,2.09
2023-03-20T01:11:49.544Z,2.00
2023-03-20T01:14:19.998Z,1.91
2023-03-20T01:16:50.557Z,1.86
2023-03-20T01:19:20.370Z,1.82
2023-03-20T01:21:49.882Z,1.76
2023-03-20T01:24:20.181Z,1.70
2023-03-20T01:26:52.058Z,1.66
2023-03-20T01:29:25.113Z,1.62
2023-03-20T01:31:55.624Z,1.57
2023-03-20T01:34:26.444Z,1.52
2023-03-20T01:36:59.778Z,1.49
2023-03-20T01:39:37.237Z,1.49
2023-03-20T01:42:07.923Z,1.49
2023-03-20T01:44:38.632Z,1.50
2023-03-20T01:47:26.542Z,1.50
2023-03-20T01:50:18.232Z,1.51
2023-03-20T01:53:14.617Z,1.51
2023-03-20T01:55:52.058Z,1.53
2023-03-20T01:58:31.910Z,1.53
2023-03-20T02:01:01.853Z,1.56
2023-03-20T02:03:32.803Z,1.58
2023-03-20T02:06:24.434Z,1.61
2023-03-20T02:09:13.049Z,1.64
2023-03-20T02:11:48.149Z,1.68
2023-03-20T02:14:21.353Z,1.71
2023-03-20T02:17:00.669Z,1.74
2023-03-20T02:20:10.921Z,1.76
2023-03-20T02:23:09.055Z,1.79
2023-03-20T02:26:28.250Z,1.85
2023-03-20T02:29:47.405Z,1.92
2023-03-20T02:32:16.803Z,2.00
2023-03-20T02:35:10.392Z,2.06
2023-03-20T02:37:43.996Z,2.13
2023-03-20T02:40:44.054Z,2.20
2023-03-20T02:43:34.702Z,2.27
2023-03-20T02:46:13.702Z,2.33
2023-03-20T02:49:11.521Z,2.39
2023-03-20T02:52:00.303Z,2.47
2023-03-20T02:54:42.674Z,2.56
2023-03-20T02:57:21.124Z,2.61
2023-03-20T03:00:09.519Z,2.63
2023-03-20T03:03:03.312Z,2.67
2023-03-20T03:05:46.222Z,2.69
2023-03-20T03:08:20.973Z,2.72
2023-03-20T03:10:57.460Z,2.73
2023-03-20T03:13:32.864Z,2.75
2023-03-20T03:16:14.208Z,2.76
2023-03-20T03:18:49.942Z,2.76
2023-03-20T03:21:20.835Z,2.75
2023-03-20T03:23:50.614Z,2.74
2023-03-20T03:26:28.642Z,2.74
2023-03-20T03:29:16.811Z,2.72
2023-03-20T03:31:54.175Z,2.70
2023-03-20T03:34:32.005Z,2.68
2023-03-20T03:37:21.765Z,2.66
2023-03-20T03:40:05.082Z,2.65
2023-03-20T03:43:13.692Z,2.65
2023-03-20T03:45:56.290Z,2.67
2023-03-20T03:48:37.105Z,2.67
2023-03-20T03:51:26.416Z,2.67
2023-03-20T03:54:25.660Z,2.66
2023-03-20T03:57:17.158Z,2.65
2023-03-20T03:59:52.987Z,2.64
2023-03-20T04:02:24.758Z,2.63
2023-03-20T04:04:57.038Z,2.59
2023-03-20T04:07:29.484Z,2.56
2023-03-20T04:09:59.612Z,2.56
2023-03-20T04:12:41.279Z,2.53
2023-03-20T04:15:16.528Z,2.51
2023-03-20T04:17:45.945Z,2.51
2023-03-20T04:20:17.839Z,2.49
2023-03-20T04:22:52.455Z,2.49
2023-03-20T04:25:27.076Z,2.51
2023-03-20T04:27:58.390Z,2.55
2023-03-20T04:30:58.952Z,2.59
2023-03-20T04:33:48.282Z,2.65
2023-03-20T04:36:48.588Z,2.71
2023-03-20T04:39:20.859Z,2.76
2023-03-20T04:41:55.336Z,2.84
2023-03-20T04:44:25.181Z,2.91
2023-03-20T04:46:54.467Z,2.98
2023-03-20T04:49:24.545Z,3.04
2023-03-20T04:51:57.367Z,3.08
2023-03-20T04:54:47.949Z,3.12
2023-03-20T04:57:19.907Z,3.17
2023-03-20T04:59:49.915Z,3.23
2023-03-20T05:02:19.739Z,3.28
2023-03-20T05:04:49.707Z,3.35
2023-03-20T05:07:19.321Z,3.43
2023-03-20T05:10:02.375Z,3.50
2023-03-20T05:12:34.789Z,3.56
2023-03-20T05:15:27.897Z,3.64
2023-03-20T05:18:50.263Z,3.69
2023-03-20T05:21:39.473Z,3.73
2023-03-20T05:24:29.510Z,3.76
2023-03-20T05:27:31.158Z,3.76
2023-03-20T05:30:32.932Z,3.78
2023-03-20T05:33:05.124Z,3.77
2023-03-20T05:35:41.645Z,3.78
2023-03-20T05:38:29.736Z,3.81
2023-03-20T05:41:23.087Z,3.85
2023-03-20T05:44:22.324Z,3.94
2023-03-20T05:47:24.206Z,3.99
2023-03-20T05:50:17.904Z,4.02
2023-03-20T05:52:59.213Z,4.06
2023-03-20T05:55:51.767Z,4.10
2023-03-20T05:58:39.501Z,4.19
2023-03-20T06:01:22.037Z,4.26
2023-03-20T06:04:03.756Z,4.36
2023-03-20T06:07:02.200Z,4.49
2023-03-20T06:09:32.084Z,4.62
2023-03-20T06:12:03.103Z,4.72
2023-03-20T06:14:32.728Z,4.82
2023-03-20T06:17:05.858Z,4.94
2023-03-20T06:19:35.140Z,5.07
2023-03-20T06:22:05.853Z,5.21
2023-03-20T06:24:36.643Z,5.32
2023-03-20T06:27:09.281Z,5.40
2023-03-20T06:29:39.210Z,5.49
2023-03-20T06:32:34.192Z,5.64
2023-03-20T06:35:29.782Z,5.80
2023-03-20T06:38:20.581Z,5.99
2023-03-20T06:40:57.668Z,6.20
2023-03-20T06:43:38.288Z,6.33
2023-03-20T06:46:11.278Z,6.39
2023-03-20T06:48:45.050Z,6.46
2023-03-20T06:51:14.589Z,6.55
2023-03-20T06:53:52.487Z,6.63
2023-03-20T06:56:26.316Z,6.72
2023-03-20T06:58:57.574Z,6.80
2023-03-20T07:01:28.616Z,6.90
2023-03-20T07:04:03.624Z,7.43
2023-03-20T07:06:41.687Z,7.73
2023-03-20T07:09:11.817Z,7.79
2023-03-20T07:11:45.664Z,7.82
2023-03-20T07:14:16.079Z,7.85
2023-03-20T07:16:57.099Z,7.92
2023-03-20T07:19:28.156Z,7.95
2023-03-20T07:22:02.812Z,8.00
2023-03-20T07:24:45.391Z,8.08
2023-03-20T07:27:21.321Z,8.17
2023-03-20T07:29:51.129Z,8.28
2023-03-20T07:32:21.275Z,8.41
2023-03-20T07:34:53.377Z,8.54
2023-03-20T07:37:26.339Z,8.68
2023-03-20T07:40:29.313Z,8.89
2023-03-20T07:43:06.391Z,9.15
2023-03-20T07:45:58.343Z,9.43
2023-03-20T07:48:28.670Z,9.71
2023-03-20T07:50:57.899Z,9.97
2023-03-20T07:53:28.978Z,10.22
2023-03-20T07:55:59.838Z,10.48
2023-03-20T07:58:31.399Z,10.72
2023-03-20T08:01:01.215Z,10.95
2023-03-20T08:03:30.906Z,11.17
2023-03-20T08:06:01.680Z,11.36
2023-03-20T08:08:31.409Z,11.53
2023-03-20T08:11:02.321Z,11.69
2023-03-20T08:13:32.298Z,11.82
2023-03-20T08:16:02.813Z,11.94
2023-03-20T08:18:32.260Z,12.09
2023-03-20T08:21:02.718Z,12.23
2023-03-20T08:23:32.153Z,12.44
2023-03-20T08:26:02.045Z,12.68
2023-03-20T08:28:46.739Z,12.80
2023-03-20T08:31:18.371Z,12.85
2023-03-20T08:33:49.003Z,12.90
2023-03-20T08:36:21.385Z,13.09
2023-03-20T08:38:51.362Z,13.38
2023-03-20T08:41:20.752Z,13.66
2023-03-20T08:43:49.894Z,13.82
2023-03-20T08:46:19.631Z,14.06
2023-03-20T08:48:49.608Z,14.31
2023-03-20T08:51:21.855Z,14.57
2023-03-20T08:53:51.286Z,14.83
2023-03-20T08:56:46.449Z,15.16
2023-03-20T08:59:16.734Z,15.47
2023-03-20T09:01:50.132Z,15.72
2023-03-20T09:04:19.724Z,15.92
2023-03-20T09:06:50.828Z,16.06
2023-03-20T09:09:21.948Z,16.19
2023-03-20T09:11:52.588Z,16.35
2023-03-20T09:14:22.418Z,16.49
2023-03-20T09:16:52.238Z,16.54
2023-03-20T09:19:21.440Z,16.55
2023-03-20T09:21:52.058Z,16.54
2023-03-20T09:24:22.071Z,16.53
2023-03-20T09:26:52.820Z,16.63
2023-03-20T09:29:22.191Z,16.73
2023-03-20T09:31:54.815Z,16.85
2023-03-20T09:34:24.738Z,16.97
2023-03-20T09:36:54.200Z,17.03
2023-03-20T09:39:25.082Z,17.17
2023-03-20T09:41:57.555Z,17.31
2023-03-20T09:44:51.398Z,17.40
2023-03-20T09:47:36.397Z,17.55
2023-03-20T09:50:56.929Z,17.73
2023-03-20T09:53:38.474Z,18.00
2023-03-20T09:56:22.430Z,18.15
2023-03-20T09:58:57.691Z,18.37
2023-03-20T10:01:34.044Z,18.59
2023-03-20T10:04:12.198Z,18.77
2023-03-20T10:06:41.959Z,18.86
2023-03-20T10:09:22.978Z,19.00
2023-03-20T10:12:27.831Z,19.21
2023-03-20T10:15:41.332Z,19.43
2023-03-20T10:18:30.250Z,19.66
2023-03-20T10:21:08.002Z,19.82
2023-03-20T10:23:49.450Z,19.95
2023-03-20T10:26:21.884Z,20.06
2023-03-20T10:29:18.458Z,20.21
2023-03-20T10:32:07.583Z,20.40
2023-03-20T10:35:18.561Z,20.63
2023-03-20T10:37:51.932Z,20.89
2023-03-20T10:40:36.665Z,21.00
2023-03-20T10:43:18.219Z,21.10
2023-03-20T10:46:13.949Z,21.25
2023-03-20T10:49:12.397Z,21.35
2023-03-20T10:51:55.139Z,21.44
2023-03-20T10:54:29.127Z,21.57
2023-03-20T10:57:01.045Z,21.74
2023-03-20T10:59:50.986Z,21.91
2023-03-20T11:02:23.719Z,22.06
2023-03-20T11:04:53.752Z,22.16
2023-03-20T11:07:38.344Z,22.31
2023-03-20T11:10:17.516Z,22.41
2023-03-20T11:12:49.882Z,22.38
2023-03-20T11:15:48.358Z,22.39
2023-03-20T11:18:24.594Z,22.38
2023-03-20T11:20:56.961Z,22.37
2023-03-20T11:23:31.836Z,22.32
2023-03-20T11:26:12.281Z,22.37
2023-03-20T11:28:51.707Z,22.39
2023-03-20T11:31:31.274Z,22.37
2023-03-20T11:34:27.126Z,22.41
2023-03-20T11:37:09.759Z,22.50
2023-03-20T11:39:58.991Z,22.64
2023-03-20T11:42:31.404Z,22.79
2023-03-20T11:45:03.873Z,22.73
2023-03-20T11:47:36.883Z,22.66
2023-03-20T11:50:25.830Z,22.71
2023-03-20T11:52:55.150Z,22.89
2023-03-20T11:55:33.373Z,23.11
2023-03-20T11:58:13.503Z,23.25
2023-03-20T12:00:43.655Z,23.44
2023-03-20T12:03:37.489Z,23.58
2023-03-20T12:06:14.837Z,23.69
2023-03-20T12:08:53.082Z,23.88
2023-03-20T12:11:54.984Z,23.85
2023-03-20T12:14:29.183Z,23.16
2023-03-20T12:17:35.713Z,22.82
2023-03-20T12:20:21.493Z,23.15
2023-03-20T12:23:01.015Z,23.42
2023-03-20T12:25:55.726Z,23.70
2023-03-20T12:28:29.004Z,24.02
2023-03-20T12:31:10.775Z,24.17
2023-03-20T12:33:50.159Z,24.17
2023-03-20T12:36:31.023Z,24.15
2023-03-20T12:39:03.291Z,24.41
2023-03-20T12:42:15.274Z,24.70
2023-03-20T12:45:11.625Z,24.97
2023-03-20T12:48:33.390Z,25.07
2023-03-20T12:51:19.474Z,25.13
2023-03-20T12:54:10.899Z,25.05
2023-03-20T12:57:02.928Z,24.74
2023-03-20T12:59:51.042Z,24.93
2023-03-20T13:03:13.281Z,25.06
2023-03-20T13:06:11.560Z,25.08
2023-03-20T13:08:48.033Z,25.45
2023-03-20T13:11:48.936Z,25.44
2023-03-20T13:14:45.225Z,25.53
2023-03-20T13:18:09.393Z,25.57
2023-03-20T13:20:53.070Z,25.56
2023-03-20T13:23:47.586Z,25.83
2023-03-20T13:26:19.487Z,25.74
2023-03-20T13:29:05.044Z,25.92
2023-03-20T13:32:00.324Z,26.22
2023-03-20T13:34:47.874Z,26.42
2023-03-20T13:37:28.199Z,26.68
2023-03-20T13:40:15.770Z,27.02
2023-03-20T13:43:00.376Z,27.28
2023-03-20T13:45:40.112Z,27.50
2023-03-20T13:48:40.883Z,27.72
2023-03-20T13:51:57.150Z,27.95
2023-03-20T13:54:48.233Z,27.99
2023-03-20T13:57:44.580Z,27.98
2023-03-20T14:00:40.772Z,28.11
2023-03-20T14:03:37.725Z,28.28
2023-03-20T14:06:45.160Z,28.41
2023-03-20T14:09:36.544Z,28.45
2023-03-20T14:12:12.537Z,28.43
2023-03-20T14:14:51.370Z,28.40
2023-03-20T14:17:24.637Z,28.25
2023-03-20T14:19:55.983Z,28.11
2023-03-20T14:22:39.500Z,27.76
2023-03-20T14:25:20.426Z,27.45
2023-03-20T14:27:59.425Z,27.32
2023-03-20T14:30:31.558Z,27.31
2023-03-20T14:33:15.631Z,27.20
2023-03-20T14:35:49.533Z,26.89
2023-03-20T14:38:33.696Z,26.63
2023-03-20T14:41:29.514Z,26.41
2023-03-20T14:44:09.438Z,26.42
2023-03-20T14:46:42.677Z,26.17
2023-03-20T14:49:31.816Z,25.70
2023-03-20T14:52:16.912Z,24.68
2023-03-20T14:54:55.156Z,23.77
2023-03-20T14:57:37.564Z,23.18
2023-03-20T15:00:30.503Z,22.57
2023-03-20T15:03:12.089Z,22.09
2023-03-20T15:05:41.215Z,21.71
2023-03-20T15:08:20.893Z,21.47
2023-03-20T15:10:55.774Z,21.29
2023-03-20T15:13:31.653Z,21.07
2023-03-20T15:16:13.211Z,20.92
2023-03-20T15:18:51.350Z,20.78
2023-03-20T15:21:33.558Z,20.67
2023-03-20T15:24:02.650Z,20.47
2023-03-20T15:26:35.794Z,20.25
2023-03-20T15:29:08.325Z,20.00
2023-03-20T15:31:41.424Z,19.77
2023-03-20T15:34:19.090Z,19.63
2023-03-20T15:36:49.215Z,19.36
2023-03-20T15:39:42.456Z,19.16
2023-03-20T15:42:17.597Z,19.05
2023-03-20T15:44:52.455Z,18.87
2023-03-20T15:47:24.883Z,18.68
2023-03-20T15:50:00.716Z,18.55
2023-03-20T15:52:40.142Z,18.35
2023-03-20T15:55:18.399Z,18.17
2023-03-20T15:57:50.762Z,17.94
2023-03-20T16:00:23.296Z,17.79
2023-03-20T16:03:14.867Z,17.59
2023-03-20T16:05:46.705Z,17.41
2023-03-20T16:08:28.838Z,17.28
2023-03-20T16:11:14.529Z,17.12
2023-03-20T16:13:47.477Z,17.01
2023-03-20T16:16:21.885Z,16.94
2023-03-20T16:18:55.416Z,16.84
2023-03-20T16:21:32.943Z,16.78
2023-03-20T16:24:09.893Z,16.68
2023-03-20T16:26:45.011Z,16.55
2023-03-20T16:29:16.111Z,16.46
2023-03-20T16:31:59.008Z,16.38
2023-03-20T16:34:35.955Z,16.31
2023-03-20T16:37:25.862Z,16.27
2023-03-20T16:40:20.090Z,16.21
2023-03-20T16:42:55.520Z,16.10
2023-03-20T16:45:35.628Z,16.02
2023-03-20T16:48:13.737Z,15.92
2023-03-20T16:50:53.758Z,15.86
2023-03-20T16:53:35.793Z,15.83
2023-03-20T16:56:06.814Z,15.79
2023-03-20T16:58:44.609Z,15.76
2023-03-20T17:01:30.332Z,15.74
2023-03-20T17:04:44.119Z,15.70
2023-03-20T17:07:20.088Z,15.63
2023-03-20T17:10:00.168Z,15.60
2023-03-20T17:12:34.364Z,15.55
2023-03-20T17:15:03.918Z,15.48
2023-03-20T17:17:34.348Z,15.42
2023-03-20T17:20:08.760Z,15.36
2023-03-20T17:22:41.323Z,15.32
2023-03-20T17:25:11.995Z,15.30
2023-03-20T17:28:00.081Z,15.24
2023-03-20T17:30:29.829Z,15.16
2023-03-20T17:33:05.256Z,15.08
2023-03-20T17:35:37.853Z,14.98
2023-03-20T17:38:28.384Z,14.90
2023-03-20T17:41:17.112Z,14.83
2023-03-20T17:43:52.499Z,14.74
2023-03-20T17:46:53.820Z,14.64
2023-03-20T17:49:28.693Z,14.58
2023-03-20T17:51:59.380Z,14.56
2023-03-20T17:54:29.176Z,14.51
2023-03-20T17:57:01.932Z,14.43
2023-03-20T17:59:31.783Z,14.36
2023-03-20T18:02:01.567Z,14.29
2023-03-20T18:04:30.977Z,14.22
2023-03-20T18:07:02.695Z,14.16
2023-03-20T18:09:33.749Z,14.11
2023-03-20T18:12:02.866Z,14.06
2023-03-20T18:14:32.109Z,14.00
2023-03-20T18:17:02.025Z,13.95
2023-03-20T18:19:31.634Z,13.88
2023-03-20T18:22:01.796Z,13.83
2023-03-20T18:24:31.557Z,13.77
2023-03-20T18:27:01.950Z,13.69
2023-03-20T18:29:31.654Z,13.66
2023-03-20T18:32:01.350Z,13.61
2023-03-20T18:34:31.606Z,13.57
2023-03-20T18:37:25.933Z,13.54
2023-03-20T18:43:29.869Z,13.38
2023-03-20T18:46:03.126Z,13.31
2023-03-20T18:48:34.595Z,13.22
2023-03-20T18:51:07.330Z,13.17
2023-03-20T18:53:36.605Z,13.12
2023-03-20T18:56:18.577Z,13.07
2023-03-20T18:58:54.035Z,13.03
2023-03-20T19:01:27.580Z,13.10
2023-03-20T19:03:57.517Z,13.22
2023-03-20T19:06:32.898Z,13.31
2023-03-20T19:09:05.479Z,13.40
2023-03-20T19:11:39.186Z,13.45
2023-03-20T19:14:10.901Z,13.51
2023-03-20T19:16:41.676Z,13.53
2023-03-20T19:19:16.009Z,13.56
2023-03-20T19:21:45.134Z,13.56
2023-03-20T19:24:15.119Z,13.58
2023-03-20T19:26:46.951Z,13.58
2023-03-20T19:29:18.710Z,13.58
2023-03-20T19:31:48.367Z,13.56
2023-03-20T19:35:00.801Z,13.56
2023-03-20T19:37:13.330Z,13.55
2023-03-20T19:39:42.634Z,13.55
2023-03-20T19:42:46.862Z,13.53
2023-03-20T19:45:01.632Z,13.51
2023-03-20T19:47:31.025Z,13.49
2023-03-20T19:50:06.596Z,13.46
2023-03-20T19:52:37.153Z,13.44
2023-03-20T19:55:06.612Z,13.42
2023-03-20T19:57:37.777Z,13.36
2023-03-20T20:03:02.535Z,13.26
2023-03-20T20:05:41.594Z,13.24
2023-03-20T20:08:27.634Z,13.19
2023-03-20T20:11:01.413Z,13.15
2023-03-20T20:13:33.158Z,13.10
2023-03-20T20:16:02.751Z,13.07
2023-03-20T20:18:32.636Z,13.04
2023-03-20T20:23:52.790Z,12.99
2023-03-20T20:26:23.068Z,12.97
2023-03-20T20:28:52.330Z,12.94
2023-03-20T20:31:30.666Z,12.93
2023-03-20T20:34:45.297Z,12.91
2023-03-20T20:37:42.326Z,12.88
2023-03-20T20:39:39.167Z,12.86
2023-03-20T20:42:08.737Z,12.83
2023-03-20T20:44:40.121Z,12.80
2023-03-20T20:47:10.601Z,12.77
2023-03-20T20:49:39.908Z,12.74
2023-03-20T20:52:11.374Z,12.70
2023-03-20T20:54:42.573Z,12.69
2023-03-20T20:57:13.011Z,12.66
2023-03-20T20:59:43.231Z,12.64
2023-03-20T21:02:13.260Z,12.61
2023-03-20T21:04:44.942Z,12.60
2023-03-20T21:07:15.020Z,12.56
2023-03-20T21:09:44.130Z,12.52
2023-03-20T21:12:32.383Z,12.49
2023-03-20T21:15:06.023Z,12.46
2023-03-20T21:17:35.593Z,12.42
2023-03-20T21:20:05.425Z,12.38
2023-03-20T21:22:37.717Z,12.34
2023-03-20T21:25:14.953Z,12.31
2023-03-20T21:27:45.903Z,12.30
2023-03-20T21:30:15.981Z,12.29
2023-03-20T21:32:45.529Z,12.25
2023-03-20T21:35:17.105Z,12.22
2023-03-20T21:38:45.227Z,12.17
2023-03-20T21:40:36.034Z,12.14
2023-03-20T21:43:06.382Z,12.11
2023-03-20T21:49:27.884Z,12.06
2023-03-20T21:52:20.113Z,12.02
2023-03-20T21:57:42.738Z,11.92
2023-03-20T22:00:31.688Z,11.88
2023-03-20T22:02:39.121Z,11.86
2023-03-20T22:08:57.765Z,11.80
2023-03-20T22:23:04.804Z,11.65
2023-03-20T22:25:46.398Z,11.63
2023-03-20T22:28:43.247Z,11.59
2023-03-20T22:34:24.052Z,11.54
2023-03-20T22:42:43.622Z,11.49
2023-03-20T22:45:01.810Z,11.48
2023-03-20T22:47:33.085Z,11.48
2023-03-20T22:50:02.799Z,11.45
2023-03-20T22:52:47.596Z,11.42
2023-03-20T22:55:18.162Z,11.36
2023-03-20T22:58:03.835Z,11.29
2023-03-20T23:00:38.454Z,11.23
2023-03-20T23:03:22.358Z,11.15
2023-03-20T23:05:58.158Z,11.07
2023-03-20T23:08:28.585Z,11.01
2023-03-20T23:10:58.525Z,10.97
2023-03-20T23:13:27.908Z,10.93
2023-03-20T23:15:57.195Z,10.90
2023-03-20T23:18:28.111Z,10.87
2023-03-20T23:21:00.159Z,10.82
2023-03-20T23:23:31.273Z,10.76
2023-03-20T23:26:12.995Z,10.71
2023-03-20T23:28:44.363Z,10.68
2023-03-20T23:31:23.322Z,10.66
2023-03-20T23:33:56.468Z,10.61
2023-03-20T23:36:42.460Z,10.56
2023-03-20T23:39:14.307Z,10.49
2023-03-20T23:42:05.096Z,10.47
2023-03-20T23:44:35.026Z,10.45
2023-03-20T23:47:19.684Z,10.44
2023-03-20T23:49:53.267Z,10.41
2023-03-20T23:52:22.459Z,10.40
2023-03-20T23:54:52.196Z,10.36
2023-03-20T23:57:21.373Z,10.31
2023-03-20T23:59:52.879Z,10.26
